Fangst — LK6971 — position and weather

sailwx.info

Track history (hours):
 
Tides and Currents Weather Stations Pressure Air Temp Water Temp Dewpoint Dewpoint Depression Visibility Wind Speed Wind Dir Waves Ship Positions

Oceanographic research ship Fangst (Norway)

Detailed information on ship capabilities available from University of Delaware's Ocean Information Center and ARCUS's ALIAS (Arctic Logistics Information and Support) project.

Last reported at 2017-Aug-20 09:30 UTC. Time now 2017-Aug-20 09:49 UTC.
Position N 63°01' E 007°21'.

Length 14 m; draft 2.5 m.

Type: Fishing. MMSI: 257076840.

Date/timePositionNaut miles runAvg speedWind from/ knotsBaromVisibWave heightAir tempDewpointWater temp
2017-Aug-20 09:30N 63°01' E 007°21'0 0.4
2017-Aug-20 09:00N 63°01' E 007°20'1 2.1
2017-Aug-20 08:30N 63°01' E 007°22'0 0.1
2017-Aug-20 08:00N 63°01' E 007°22'0 0.2
2017-Aug-20 07:30N 63°01' E 007°23'0 0.2
2017-Aug-20 07:00N 63°01' E 007°23'1 2.7
2017-Aug-20 06:30N 63°01' E 007°20'1 1.7
2017-Aug-20 06:00N 63°00' E 007°18'0 0.0
2017-Aug-20 05:30N 63°00' E 007°18'0 0.0
2017-Aug-20 05:00N 63°00' E 007°18'0 0.0
2017-Aug-20 04:30N 63°00' E 007°18'0 0.0
2017-Aug-20 04:00N 63°00' E 007°18'0 0.0
2017-Aug-20 03:30N 63°00' E 007°18'0 0.0
2017-Aug-20 03:00N 63°00' E 007°18'0 0.0
2017-Aug-20 02:30N 63°00' E 007°18'0 0.0
2017-Aug-20 02:00N 63°00' E 007°18'0 0.0
2017-Aug-20 01:30N 63°00' E 007°18'0 0.0
2017-Aug-20 01:00N 63°00' E 007°18'0 0.0
2017-Aug-20 00:30N 63°00' E 007°18'0 0.0
2017-Aug-20 00:00N 63°00' E 007°18'0 0.0
2017-Aug-19 23:30N 63°00' E 007°18'0 0.0
2017-Aug-19 23:00N 63°00' E 007°18'0 0.0
2017-Aug-19 22:30N 63°00' E 007°18'0 0.0
2017-Aug-19 22:00N 63°00' E 007°18'0 0.0
2017-Aug-19 21:30N 63°00' E 007°18'0 0.0
2017-Aug-19 21:00N 63°00' E 007°18'0 0.0
2017-Aug-19 20:30N 63°00' E 007°18'0 0.0
2017-Aug-19 20:00N 63°00' E 007°18'0 0.0
2017-Aug-19 19:30N 63°00' E 007°18'0 0.0
2017-Aug-19 19:00N 63°00' E 007°18'0 0.0
2017-Aug-19 18:30N 63°00' E 007°18'0 0.0
2017-Aug-19 18:00N 63°00' E 007°18'0 0.0
2017-Aug-19 17:30N 63°00' E 007°18'0 0.0
2017-Aug-19 17:00N 63°00' E 007°18'0 0.0
2017-Aug-19 16:30N 63°00' E 007°18'0 0.0
2017-Aug-19 16:00N 63°00' E 007°18'0 0.0
2017-Aug-19 15:30N 63°00' E 007°18'0 0.0
2017-Aug-19 15:00N 63°00' E 007°18'2 1.7
2017-Aug-19 14:00N 63°01' E 007°22'0 0.8
2017-Aug-19 13:30N 63°01' E 007°23'1 2.7
2017-Aug-19 13:01N 63°01' E 007°20'0 0.2
2017-Aug-19 12:31N 63°01' E 007°20'2 4.0
2017-Aug-19 12:00N 63°01' E 007°16'3 6.8
2017-Aug-19 11:30N 63°00' E 007°09'3 6.9
2017-Aug-19 11:00N 62°59' E 007°02'2 3.9
2017-Aug-19 10:30N 62°57' E 006°59'2 4.2
2017-Aug-19 10:00N 62°56' E 006°56'3 6.6
2017-Aug-19 09:30N 62°53' E 006°52'0 0.4
2017-Aug-19 09:00N 62°53' E 006°51'1 1.9
2017-Aug-19 08:30N 62°53' E 006°50'0 0.1
2017-Aug-19 08:00N 62°53' E 006°50'0 0.8
2017-Aug-19 07:30N 62°53' E 006°50'0 0.2
2017-Aug-19 07:00N 62°53' E 006°50'0 1.0
2017-Aug-19 06:30N 62°53' E 006°51'2 3.1
2017-Aug-19 06:00N 62°54' E 006°53'1 1.5
2017-Aug-19 05:29N 62°54' E 006°55'0 0.0
2017-Aug-19 05:00N 62°54' E 006°55'0 0.0
2017-Aug-19 04:30N 62°54' E 006°55'0 0.0
2017-Aug-19 04:00N 62°54' E 006°55'0 0.0
2017-Aug-19 03:30N 62°54' E 006°55'0 0.0
2017-Aug-19 03:00N 62°54' E 006°55'0 0.0
2017-Aug-19 02:29N 62°54' E 006°55'0 0.0
2017-Aug-19 02:00N 62°54' E 006°55'0 0.0
2017-Aug-19 01:30N 62°54' E 006°55'0 0.0
2017-Aug-19 01:00N 62°54' E 006°55'0 0.0
2017-Aug-19 00:30N 62°54' E 006°55'0 0.0
2017-Aug-19 00:00N 62°54' E 006°55'0 0.0
2017-Aug-18 23:30N 62°54' E 006°55'0 0.0
2017-Aug-18 23:00N 62°54' E 006°55'0 0.0
2017-Aug-18 22:30N 62°54' E 006°55'0 0.0
2017-Aug-18 21:59N 62°54' E 006°55'0 0.0
2017-Aug-18 21:29N 62°54' E 006°55'0 0.0
2017-Aug-18 21:00N 62°54' E 006°55'0 0.0
2017-Aug-18 20:30N 62°54' E 006°55'0 0.0
2017-Aug-18 20:00N 62°54' E 006°55'0 0.0
2017-Aug-18 19:30N 62°54' E 006°55'0 0.0
2017-Aug-18 19:00N 62°54' E 006°55'0 0.0
2017-Aug-18 18:29N 62°54' E 006°55'0 0.0
2017-Aug-18 18:00N 62°54' E 006°55'0 0.0
2017-Aug-18 17:30N 62°54' E 006°55'0 0.0
2017-Aug-18 16:59N 62°54' E 006°55'0 0.4
2017-Aug-18 16:30N 62°54' E 006°54'2 4.6
2017-Aug-18 16:00N 62°53' E 006°50'0 0.9
2017-Aug-18 15:30N 62°53' E 006°51'1 1.3
2017-Aug-18 15:00N 62°53' E 006°50'0 0.4
2017-Aug-18 14:30N 62°53' E 006°50'0 0.2
2017-Aug-18 13:31N 62°53' E 006°50'0 0.3
2017-Aug-18 13:01N 62°53' E 006°50'2 3.3
2017-Aug-18 12:30N 62°52' E 006°47'3 6.0
2017-Aug-18 12:00N 62°51' E 006°41'3 5.9
2017-Aug-18 11:30N 62°50' E 006°35'1 2.5
2017-Aug-18 10:59N 62°49' E 006°33'0 0.0
2017-Aug-18 10:30N 62°49' E 006°33'0 0.0
2017-Aug-18 10:00N 62°49' E 006°33'1 1.9
2017-Aug-18 09:31N 62°48' E 006°32'0 0.7
2017-Aug-18 09:00N 62°49' E 006°31'1 1.6
2017-Aug-18 08:30N 62°49' E 006°30'0 0.3
2017-Aug-18 08:00N 62°49' E 006°31'1 1.4
2017-Aug-18 07:30N 62°50' E 006°32'0 0.5
2017-Aug-18 07:00N 62°49' E 006°33'0 0.2
2017-Aug-18 06:30N 62°49' E 006°33'1 1.7
2017-Aug-18 06:00N 62°49' E 006°34'0 0.0
2017-Aug-18 05:30N 62°49' E 006°34'0 0.0
2017-Aug-18 04:59N 62°49' E 006°34'0 0.0
2017-Aug-18 04:30N 62°49' E 006°34'0 0.0
2017-Aug-18 04:00N 62°49' E 006°34'0 0.0
2017-Aug-18 03:30N 62°49' E 006°34'0 0.0
2017-Aug-18 03:00N 62°49' E 006°34'0 0.0
2017-Aug-18 02:30N 62°49' E 006°34'0 0.0
2017-Aug-18 02:00N 62°49' E 006°34'0 0.0
2017-Aug-18 01:30N 62°49' E 006°34'0 0.0
2017-Aug-18 01:00N 62°49' E 006°34'0 0.0
2017-Aug-18 00:30N 62°49' E 006°34'0 0.0
2017-Aug-18 00:00N 62°49' E 006°34'0 0.0
2017-Aug-17 23:30N 62°49' E 006°34'0 0.0
2017-Aug-17 22:59N 62°49' E 006°34'0 0.0
2017-Aug-17 22:30N 62°49' E 006°34'0 0.0
2017-Aug-17 22:00N 62°49' E 006°34'0 0.0
2017-Aug-17 21:30N 62°49' E 006°34'0 0.0
2017-Aug-17 21:00N 62°49' E 006°34'0 0.0
2017-Aug-17 20:30N 62°49' E 006°34'0 0.0
2017-Aug-17 20:00N 62°49' E 006°34'0 0.0
2017-Aug-17 19:30N 62°49' E 006°34'0 0.0
2017-Aug-17 18:41N 62°49' E 006°34'0 0.0
2017-Aug-17 18:30N 62°49' E 006°34'0 0.0
2017-Aug-17 18:00N 62°49' E 006°34'0 0.0
2017-Aug-17 17:30N 62°49' E 006°34'0 0.5
2017-Aug-17 17:00N 62°49' E 006°34'2 3.1
2017-Aug-17 16:30N 62°49' E 006°31'1 2.2
2017-Aug-17 16:00N 62°49' E 006°33'0 0.0
2017-Aug-17 15:30N 62°49' E 006°33'1 1.8
2017-Aug-17 15:00N 62°48' E 006°33'3 6.8
2017-Aug-17 14:30N 62°45' E 006°36'3 6.5
2017-Aug-17 14:00N 62°42' E 006°40'1 2.0
2017-Aug-17 13:30N 62°42' E 006°42'0 0.0
2017-Aug-17 13:00N 62°42' E 006°42'0 0.0
2017-Aug-17 12:30N 62°42' E 006°42'0 0.0
2017-Aug-17 12:00N 62°42' E 006°42'0 0.0
2017-Aug-17 11:30N 62°42' E 006°42'0 0.0
2017-Aug-17 11:00N 62°42' E 006°42'0 0.0
2017-Aug-17 10:30N 62°42' E 006°42'0 0.0
2017-Aug-17 10:00N 62°42' E 006°42'1 2.5
2017-Aug-17 09:30N 62°42' E 006°39'0 0.5
2017-Aug-17 09:00N 62°42' E 006°39'0 0.4
2017-Aug-17 08:30N 62°42' E 006°39'0 0.3
2017-Aug-17 08:00N 62°42' E 006°39'0 0.6
2017-Aug-17 07:30N 62°42' E 006°39'1 1.3
2017-Aug-17 07:00N 62°43' E 006°40'0 0.2
2017-Aug-17 06:30N 62°42' E 006°40'2 4.0
2017-Aug-17 06:00N 62°40' E 006°40'0 0.0
2017-Aug-17 05:30N 62°40' E 006°40'0 0.0
2017-Aug-17 05:00N 62°40' E 006°40'0 0.0
2017-Aug-17 04:30N 62°40' E 006°40'0 0.0
2017-Aug-17 04:00N 62°40' E 006°40'0 0.0
2017-Aug-17 03:30N 62°40' E 006°40'0 0.0
2017-Aug-17 03:00N 62°40' E 006°40'0 0.0
2017-Aug-17 02:30N 62°40' E 006°40'0 0.0
2017-Aug-17 02:00N 62°40' E 006°40'0 0.0
2017-Aug-17 01:30N 62°40' E 006°40'0 0.0
2017-Aug-17 01:00N 62°40' E 006°40'0 0.0
2017-Aug-17 00:29N 62°40' E 006°40'0 0.0
2017-Aug-17 00:00N 62°40' E 006°40'0 0.0
2017-Aug-16 23:30N 62°40' E 006°40'0 0.0
2017-Aug-16 23:00N 62°40' E 006°40'0 0.0
2017-Aug-16 22:30N 62°40' E 006°40'0 0.0
2017-Aug-16 21:59N 62°40' E 006°40'0 0.0
2017-Aug-16 21:30N 62°40' E 006°40'0 0.0
2017-Aug-16 21:00N 62°40' E 006°40'0 0.0
2017-Aug-16 20:30N 62°40' E 006°40'0 0.0
2017-Aug-16 20:00N 62°40' E 006°40'0 0.0
2017-Aug-16 19:30N 62°40' E 006°40'0 0.0
2017-Aug-16 19:00N 62°40' E 006°40'0 0.0
2017-Aug-16 18:30N 62°40' E 006°40'0 0.0
2017-Aug-16 18:00N 62°40' E 006°40'0 0.0
2017-Aug-16 17:30N 62°40' E 006°40'0 0.0
2017-Aug-16 17:00N 62°40' E 006°40'0 0.0
2017-Aug-16 16:30N 62°40' E 006°40'0 0.0
2017-Aug-16 16:00N 62°40' E 006°40'2 3.2
2017-Aug-16 15:29N 62°42' E 006°40'1 1.3
2017-Aug-16 15:00N 62°42' E 006°39'0 0.3
2017-Aug-16 14:30N 62°42' E 006°38'1 2.2
2017-Aug-16 14:00N 62°42' E 006°40'0 0.7
2017-Aug-16 13:30N 62°43' E 006°40'2 4.0
2017-Aug-16 13:00N 62°42' E 006°36'4 7.4
2017-Aug-16 12:30N 62°40' E 006°29'4 7.3
2017-Aug-16 12:00N 62°38' E 006°22'3 6.8
2017-Aug-16 11:30N 62°40' E 006°16'1 2.2
2017-Aug-16 11:00N 62°41' E 006°14'0 0.0
2017-Aug-16 10:30N 62°41' E 006°14'0 0.0
2017-Aug-16 10:00N 62°41' E 006°14'0 0.0
2017-Aug-16 09:30N 62°41' E 006°14'0 0.0
2017-Aug-16 09:00N 62°41' E 006°14'0 0.0
2017-Aug-16 08:30N 62°41' E 006°14'0 0.0
2017-Aug-16 08:00N 62°41' E 006°14'0 0.5
2017-Aug-16 07:30N 62°41' E 006°14'1 1.0
2017-Aug-16 07:00N 62°40' E 006°14'1 1.2
2017-Aug-16 06:30N 62°41' E 006°15'0 0.5
2017-Aug-16 06:00N 62°41' E 006°14'0 0.0
2017-Aug-16 05:30N 62°41' E 006°14'0 0.0
2017-Aug-16 05:00N 62°41' E 006°14'0 0.0
2017-Aug-16 04:30N 62°41' E 006°14'0 0.0
2017-Aug-16 04:00N 62°41' E 006°14'0 0.0
2017-Aug-16 03:30N 62°41' E 006°14'0 0.0
2017-Aug-16 03:00N 62°41' E 006°14'0 0.0
2017-Aug-16 02:30N 62°41' E 006°14'0 0.0
2017-Aug-16 02:00N 62°41' E 006°14'0 0.0
2017-Aug-16 01:30N 62°41' E 006°14'0 0.0
2017-Aug-16 01:00N 62°41' E 006°14'0 0.0
2017-Aug-16 00:30N 62°41' E 006°14'0 0.0
2017-Aug-16 00:00N 62°41' E 006°14'0 0.0
2017-Aug-15 23:29N 62°41' E 006°14'0 0.0
2017-Aug-15 23:00N 62°41' E 006°14'0 0.0
2017-Aug-15 22:30N 62°41' E 006°14'0 0.0
2017-Aug-15 22:00N 62°41' E 006°14'0 0.0
2017-Aug-15 21:30N 62°41' E 006°14'0 0.0
2017-Aug-15 21:00N 62°41' E 006°14'0 0.0
2017-Aug-15 20:30N 62°41' E 006°14'0 0.0
2017-Aug-15 20:00N 62°41' E 006°14'0 0.0
2017-Aug-15 19:30N 62°41' E 006°14'0 0.0
2017-Aug-15 19:00N 62°41' E 006°14'0 0.0
2017-Aug-15 18:30N 62°41' E 006°14'0 0.0
2017-Aug-15 18:00N 62°41' E 006°14'0 0.0
2017-Aug-15 17:30N 62°41' E 006°14'0 0.0
2017-Aug-15 17:00N 62°41' E 006°14'0 0.0
2017-Aug-15 16:30N 62°41' E 006°14'1 1.3
2017-Aug-15 16:00N 62°40' E 006°14'1 1.2
2017-Aug-15 15:30N 62°41' E 006°14'0 0.0
2017-Aug-15 15:00N 62°41' E 006°14'0 0.0
2017-Aug-15 14:30N 62°41' E 006°14'0 0.0
2017-Aug-15 14:00N 62°41' E 006°14'0 0.0
2017-Aug-15 13:30N 62°41' E 006°14'0 0.0
2017-Aug-15 12:59N 62°41' E 006°14'2 3.6
2017-Aug-15 12:30N 62°39' E 006°16'3 5.4
2017-Aug-15 12:00N 62°37' E 006°17'3 6.0
2017-Aug-15 11:29N 62°34' E 006°13'3 5.9
2017-Aug-15 10:59N 62°32' E 006°09'1 1.2
2017-Aug-15 10:30N 62°32' E 006°07'0 0.0
2017-Aug-15 10:00N 62°32' E 006°07'0 0.0
2017-Aug-15 09:30N 62°32' E 006°07'2 4.5
2017-Aug-15 09:00N 62°30' E 006°08'2 4.8
2017-Aug-15 08:29N 62°31' E 006°04'1 1.7
2017-Aug-15 08:00N 62°32' E 006°03'0 0.2
2017-Aug-15 07:30N 62°32' E 006°03'0 0.2
2017-Aug-15 07:00N 62°32' E 006°03'1 1.9
2017-Aug-15 06:29N 62°32' E 006°05'0 0.7
2017-Aug-15 06:00N 62°32' E 006°05'0 0.9
2017-Aug-15 05:30N 62°33' E 006°04'0 0.0
2017-Aug-15 05:00N 62°33' E 006°04'0 0.0
2017-Aug-15 04:30N 62°33' E 006°04'0 0.0
2017-Aug-15 04:00N 62°33' E 006°04'0 0.0
2017-Aug-15 03:30N 62°33' E 006°04'0 0.0
2017-Aug-15 03:00N 62°33' E 006°04'0 0.0
2017-Aug-15 02:30N 62°33' E 006°04'0 0.0
2017-Aug-15 02:00N 62°33' E 006°04'0 0.0
2017-Aug-15 01:30N 62°33' E 006°04'0 0.0
2017-Aug-15 01:00N 62°33' E 006°04'0 0.0
2017-Aug-15 00:30N 62°33' E 006°04'0 0.0
2017-Aug-15 00:00N 62°33' E 006°04'0 0.0
2017-Aug-14 23:30N 62°33' E 006°04'0 0.0
2017-Aug-14 23:00N 62°33' E 006°04'0 0.0
2017-Aug-14 22:30N 62°33' E 006°04'0 0.0
2017-Aug-14 22:00N 62°33' E 006°04'0 0.0
2017-Aug-14 21:30N 62°33' E 006°04'0 0.0
2017-Aug-14 21:00N 62°33' E 006°04'0 0.0
2017-Aug-14 20:30N 62°33' E 006°04'0 0.0
2017-Aug-14 19:59N 62°33' E 006°04'0 0.0
2017-Aug-14 19:30N 62°33' E 006°04'0 0.0
2017-Aug-14 19:00N 62°33' E 006°04'0 0.0
2017-Aug-14 18:29N 62°33' E 006°04'0 0.0
2017-Aug-14 18:00N 62°33' E 006°04'1 1.3
2017-Aug-14 17:30N 62°32' E 006°04'1 1.9
2017-Aug-14 16:59N 62°32' E 006°06'1 1.3
2017-Aug-14 16:30N 62°33' E 006°06'2 4.9
2017-Aug-14 16:00N 62°30' E 006°05'2 4.0
2017-Aug-14 15:29N 62°31' E 006°09'5 2.0
2017-Aug-14 13:06N 62°36' E 006°07'0 4.2
2017-Aug-14 13:00N 62°36' E 006°08'3 6.4
2017-Aug-14 12:30N 62°33' E 006°09'3 6.7
2017-Aug-14 12:00N 62°29' E 006°10'3 6.6
2017-Aug-14 11:30N 62°29' E 006°17'1 1.2
2017-Aug-14 11:00N 62°29' E 006°18'0 0.0
2017-Aug-14 10:30N 62°29' E 006°18'0 0.0
2017-Aug-14 10:00N 62°29' E 006°18'0 0.0
2017-Aug-14 09:30N 62°29' E 006°18'0 0.0
2017-Aug-14 09:00N 62°29' E 006°18'1 2.4
2017-Aug-14 08:30N 62°29' E 006°16'1 2.7
2017-Aug-14 08:00N 62°30' E 006°13'0 0.2
2017-Aug-14 07:30N 62°30' E 006°13'1 2.0
2017-Aug-14 07:00N 62°29' E 006°15'2 3.2
2017-Aug-14 06:30N 62°29' E 006°19'2 3.0
2017-Aug-14 06:00N 62°28' E 006°22'0 0.0
2017-Aug-14 05:30N 62°28' E 006°22'0 0.0
2017-Aug-14 05:00N 62°28' E 006°22'0 0.0
2017-Aug-14 04:29N 62°28' E 006°22'0 0.0
2017-Aug-14 04:00N 62°28' E 006°22'0 0.0
2017-Aug-14 03:30N 62°28' E 006°22'0 0.0
2017-Aug-14 02:59N 62°28' E 006°22'0 0.0
2017-Aug-14 02:30N 62°28' E 006°22'0 0.0
2017-Aug-14 01:59N 62°28' E 006°22'0 0.0
2017-Aug-14 01:29N 62°28' E 006°22'0 0.0
2017-Aug-14 01:00N 62°28' E 006°22'0 0.0
2017-Aug-14 00:30N 62°28' E 006°22'0 0.0
2017-Aug-13 23:59N 62°28' E 006°22'0 0.0
2017-Aug-13 23:30N 62°28' E 006°22'0 0.0
2017-Aug-13 23:00N 62°28' E 006°22'0 0.0
2017-Aug-13 22:30N 62°28' E 006°22'0 0.0
2017-Aug-13 22:00N 62°28' E 006°22'0 0.0
2017-Aug-13 21:30N 62°28' E 006°22'0 0.0
2017-Aug-13 21:00N 62°28' E 006°22'0 0.0
2017-Aug-13 20:30N 62°28' E 006°22'0 0.0
2017-Aug-13 20:00N 62°28' E 006°22'0 0.0
2017-Aug-13 19:30N 62°28' E 006°22'0 0.0
2017-Aug-13 19:00N 62°28' E 006°22'0 0.0
2017-Aug-13 18:30N 62°28' E 006°22'0 0.0
2017-Aug-13 18:00N 62°28' E 006°22'0 0.0
2017-Aug-13 17:30N 62°28' E 006°22'2 3.7
2017-Aug-13 17:01N 62°29' E 006°18'2 3.1
2017-Aug-13 16:30N 62°29' E 006°15'3 5.8
2017-Aug-13 16:00N 62°29' E 006°21'0 0.8
2017-Aug-13 15:30N 62°28' E 006°22'1 2.2
2017-Aug-13 15:00N 62°29' E 006°19'2 4.0
2017-Aug-13 14:30N 62°29' E 006°15'1 2.0
2017-Aug-13 14:00N 62°30' E 006°13'0 0.1
2017-Aug-13 13:30N 62°30' E 006°13'0 0.2
2017-Aug-13 13:00N 62°30' E 006°13'0 0.2
2017-Aug-13 12:30N 62°30' E 006°13'0 0.2
2017-Aug-13 12:00N 62°30' E 006°13'2 5.0
2017-Aug-13 11:30N 62°29' E 006°09'1 1.8
2017-Aug-13 11:00N 62°28' E 006°07'1 1.0
2017-Aug-13 10:29N 62°28' E 006°08'2 3.9
2017-Aug-13 10:00N 62°28' E 006°12'3 6.3
2017-Aug-13 09:30N 62°27' E 006°19'1 2.1
2017-Aug-13 08:59N 62°26' E 006°20'0 0.0
2017-Aug-13 08:30N 62°26' E 006°20'0 0.1
2017-Aug-13 08:00N 62°26' E 006°20'2 3.4
2017-Aug-13 07:30N 62°27' E 006°17'3 6.1
2017-Aug-13 07:00N 62°28' E 006°10'1 2.7
2017-Aug-13 06:30N 62°28' E 006°08'1 1.9
2017-Aug-13 06:00N 62°28' E 006°09'0 0.0
2017-Aug-13 05:30N 62°28' E 006°09'0 0.0
2017-Aug-13 05:00N 62°28' E 006°09'0 0.0
2017-Aug-13 04:30N 62°28' E 006°09'0 0.0
2017-Aug-13 04:00N 62°28' E 006°09'0 0.0
2017-Aug-13 03:30N 62°28' E 006°09'0 0.0
2017-Aug-13 03:00N 62°28' E 006°09'0 0.0
2017-Aug-13 02:30N 62°28' E 006°09'0 0.0
2017-Aug-13 02:00N 62°28' E 006°09'0 0.0
2017-Aug-13 01:30N 62°28' E 006°09'0 0.0
2017-Aug-13 01:00N 62°28' E 006°09'0 0.0
2017-Aug-13 00:30N 62°28' E 006°09'0 0.0
2017-Aug-13 00:00N 62°28' E 006°09'0 0.0
2017-Aug-12 23:30N 62°28' E 006°09'0 0.0
2017-Aug-12 23:00N 62°28' E 006°09'0 0.0
2017-Aug-12 22:29N 62°28' E 006°09'0 0.0
2017-Aug-12 22:00N 62°28' E 006°09'0 0.0
2017-Aug-12 21:29N 62°28' E 006°09'0 0.0
2017-Aug-12 21:00N 62°28' E 006°09'0 0.0
2017-Aug-12 20:30N 62°28' E 006°09'0 0.0
2017-Aug-12 20:00N 62°28' E 006°09'0 0.0
2017-Aug-12 19:29N 62°28' E 006°09'0 0.0
2017-Aug-12 19:00N 62°28' E 006°09'0 0.0
2017-Aug-12 18:30N 62°28' E 006°09'0 0.0
2017-Aug-12 18:00N 62°28' E 006°09'0 0.0
2017-Aug-12 17:30N 62°28' E 006°09'0 0.0
2017-Aug-12 17:00N 62°28' E 006°09'0 0.0
2017-Aug-12 16:30N 62°28' E 006°09'1 1.4
2017-Aug-12 16:00N 62°28' E 006°08'2 3.7
2017-Aug-12 15:30N 62°28' E 006°12'3 6.8
2017-Aug-12 15:00N 62°27' E 006°19'1 1.3
2017-Aug-12 14:30N 62°26' E 006°20'0 0.1
2017-Aug-12 14:00N 62°26' E 006°20'2 4.9
2017-Aug-12 13:30N 62°27' E 006°15'3 6.5
2017-Aug-12 13:00N 62°27' E 006°08'3 6.4
2017-Aug-12 12:30N 62°26' E 006°02'3 6.4
2017-Aug-12 12:00N 62°26' E 005°55'3 5.8
2017-Aug-12 11:30N 62°24' E 005°50'3 6.3
2017-Aug-12 11:00N 62°21' E 005°48'3 6.2
2017-Aug-12 10:30N 62°18' E 005°45'0 0.7
2017-Aug-12 10:00N 62°18' E 005°46'0 0.0
2017-Aug-12 09:30N 62°18' E 005°46'0 0.0
2017-Aug-12 09:00N 62°18' E 005°46'0 0.0
2017-Aug-12 08:30N 62°18' E 005°46'0 0.0
2017-Aug-12 08:00N 62°18' E 005°46'0 0.0
2017-Aug-12 07:30N 62°18' E 005°46'0 0.1
2017-Aug-12 07:00N 62°18' E 005°46'1 1.8
2017-Aug-12 06:30N 62°18' E 005°45'0 0.3
2017-Aug-12 06:00N 62°17' E 005°44'0 0.0
2017-Aug-12 05:30N 62°17' E 005°44'0 0.0
2017-Aug-12 05:00N 62°17' E 005°44'0 0.0
2017-Aug-12 04:30N 62°17' E 005°44'0 0.0
2017-Aug-12 04:00N 62°17' E 005°44'0 0.0
2017-Aug-12 03:30N 62°17' E 005°44'0 0.0
2017-Aug-12 03:00N 62°17' E 005°44'0 0.0
2017-Aug-12 02:30N 62°17' E 005°44'0 0.0
2017-Aug-12 02:00N 62°17' E 005°44'0 0.0
2017-Aug-12 01:30N 62°17' E 005°44'0 0.0
2017-Aug-12 01:00N 62°17' E 005°44'0 0.0
2017-Aug-12 00:30N 62°17' E 005°44'0 0.0
2017-Aug-11 23:59N 62°17' E 005°44'0 0.0
2017-Aug-11 23:30N 62°17' E 005°44'0 0.0
2017-Aug-11 23:00N 62°17' E 005°44'0 0.0
2017-Aug-11 22:30N 62°17' E 005°44'0 0.0
2017-Aug-11 22:00N 62°17' E 005°44'0 0.0
2017-Aug-11 21:30N 62°17' E 005°44'0 0.0
2017-Aug-11 21:00N 62°17' E 005°44'0 0.0
2017-Aug-11 20:30N 62°17' E 005°44'0 0.0
2017-Aug-11 20:00N 62°17' E 005°44'0 0.0
2017-Aug-11 19:29N 62°17' E 005°44'0 0.0
2017-Aug-11 19:00N 62°17' E 005°44'0 0.0
2017-Aug-11 18:30N 62°17' E 005°44'0 0.0
2017-Aug-11 18:00N 62°17' E 005°44'0 0.6
2017-Aug-11 17:30N 62°18' E 005°45'1 1.8
2017-Aug-11 17:00N 62°18' E 005°46'1 1.0
2017-Aug-11 16:30N 62°18' E 005°46'1 1.0
2017-Aug-11 16:00N 62°18' E 005°45'0 0.2
2017-Aug-11 15:30N 62°18' E 005°45'3 5.7
2017-Aug-11 15:00N 62°20' E 005°45'3 3.1
2017-Aug-11 14:00N 62°21' E 005°38'0 0.0
2017-Aug-11 13:30N 62°21' E 005°38'0 0.0
2017-Aug-11 13:00N 62°21' E 005°38'0 0.0
2017-Aug-11 12:30N 62°21' E 005°38'0 0.0
2017-Aug-11 12:00N 62°21' E 005°38'0 0.0
2017-Aug-11 11:30N 62°21' E 005°38'0 0.0
2017-Aug-11 10:59N 62°21' E 005°38'0 0.0
2017-Aug-11 10:30N 62°21' E 005°38'0 0.0
2017-Aug-11 10:00N 62°21' E 005°38'0 0.0
2017-Aug-11 09:30N 62°21' E 005°38'0 0.0
2017-Aug-11 09:00N 62°21' E 005°38'0 0.0
2017-Aug-11 08:30N 62°21' E 005°38'0 0.0
2017-Aug-11 08:00N 62°21' E 005°38'0 0.0
2017-Aug-11 07:30N 62°21' E 005°38'0 0.0
2017-Aug-11 07:00N 62°21' E 005°38'0 0.0
2017-Aug-11 06:30N 62°21' E 005°38'0 0.0
2017-Aug-11 06:00N 62°21' E 005°38'0 0.0
2017-Aug-11 05:30N 62°21' E 005°38'0 0.0
2017-Aug-11 05:00N 62°21' E 005°38'0 0.0
2017-Aug-11 04:30N 62°21' E 005°38'0 0.0
2017-Aug-11 04:00N 62°21' E 005°38'0 0.0
2017-Aug-11 03:30N 62°21' E 005°38'0 0.0
2017-Aug-11 03:00N 62°21' E 005°38'0 0.0
2017-Aug-11 02:30N 62°21' E 005°38'0 0.0
2017-Aug-11 02:00N 62°21' E 005°38'0 0.0
2017-Aug-11 01:30N 62°21' E 005°38'0 0.0
2017-Aug-11 01:00N 62°21' E 005°38'0 0.0
2017-Aug-11 00:30N 62°21' E 005°38'0 0.0
2017-Aug-11 00:00N 62°21' E 005°38'0 0.0
2017-Aug-10 23:30N 62°21' E 005°38'0 0.0
2017-Aug-10 23:00N 62°21' E 005°38'0 0.0
2017-Aug-10 22:29N 62°21' E 005°38'0 0.0
2017-Aug-10 22:00N 62°21' E 005°38'0 0.0
2017-Aug-10 21:30N 62°21' E 005°38'0 0.0
2017-Aug-10 21:00N 62°21' E 005°38'0 0.0
2017-Aug-10 20:30N 62°21' E 005°38'0 0.0
2017-Aug-10 20:00N 62°21' E 005°38'0 0.0
2017-Aug-10 19:30N 62°21' E 005°38'0 0.0
2017-Aug-10 19:00N 62°21' E 005°38'0 0.0
2017-Aug-10 18:29N 62°21' E 005°38'0 0.0
2017-Aug-10 18:00N 62°21' E 005°38'0 0.0
2017-Aug-10 17:30N 62°21' E 005°38'0 0.0
2017-Aug-10 17:00N 62°21' E 005°38'0 0.0
2017-Aug-10 16:29N 62°21' E 005°38'0 0.0
2017-Aug-10 16:00N 62°21' E 005°38'0 0.0
2017-Aug-10 15:30N 62°21' E 005°38'0 0.0
2017-Aug-10 15:00N 62°21' E 005°38'2 4.3
2017-Aug-10 14:30N 62°22' E 005°41'3 6.1
2017-Aug-10 13:58N 62°21' E 005°48'1 3.1
2017-Aug-10 13:30N 62°21' E 005°51'0 0.0
2017-Aug-10 13:00N 62°21' E 005°51'0 0.0
2017-Aug-10 12:30N 62°21' E 005°51'0 0.0
2017-Aug-10 12:00N 62°21' E 005°51'0 0.0
2017-Aug-10 11:30N 62°21' E 005°51'2 4.0
2017-Aug-10 10:59N 62°20' E 005°47'2 3.7
2017-Aug-10 10:29N 62°18' E 005°45'1 1.6
2017-Aug-10 10:00N 62°19' E 005°46'  
Track history (hours):
 
Tides and Currents Weather Stations Pressure Air Temp Water Temp Dewpoint Dewpoint Depression Visibility Wind Speed Wind Dir Waves Ship Positions

Oceanographic research ship Fangst (Norway)

Detailed information on ship capabilities available from University of Delaware's Ocean Information Center and ARCUS's ALIAS (Arctic Logistics Information and Support) project.

Last reported at 2017-Aug-20 09:30 UTC. Time now 2017-Aug-20 09:49 UTC.
Position N 63°01' E 007°21'.

Length 14 m; draft 2.5 m.

Type: Fishing. MMSI: 257076840.

Date/timePositionNaut miles runAvg speedWind from/ knotsBaromVisibWave heightAir tempDewpointWater temp
2017-Aug-20 09:30N 63°01' E 007°21'0 0.4
2017-Aug-20 09:00N 63°01' E 007°20'1 2.1
2017-Aug-20 08:30N 63°01' E 007°22'0 0.1
2017-Aug-20 08:00N 63°01' E 007°22'0 0.2
2017-Aug-20 07:30N 63°01' E 007°23'0 0.2
2017-Aug-20 07:00N 63°01' E 007°23'1 2.7
2017-Aug-20 06:30N 63°01' E 007°20'1 1.7
2017-Aug-20 06:00N 63°00' E 007°18'0 0.0
2017-Aug-20 05:30N 63°00' E 007°18'0 0.0
2017-Aug-20 05:00N 63°00' E 007°18'0 0.0
2017-Aug-20 04:30N 63°00' E 007°18'0 0.0
2017-Aug-20 04:00N 63°00' E 007°18'0 0.0
2017-Aug-20 03:30N 63°00' E 007°18'0 0.0
2017-Aug-20 03:00N 63°00' E 007°18'0 0.0
2017-Aug-20 02:30N 63°00' E 007°18'0 0.0
2017-Aug-20 02:00N 63°00' E 007°18'0 0.0
2017-Aug-20 01:30N 63°00' E 007°18'0 0.0
2017-Aug-20 01:00N 63°00' E 007°18'0 0.0
2017-Aug-20 00:30N 63°00' E 007°18'0 0.0
2017-Aug-20 00:00N 63°00' E 007°18'0 0.0
2017-Aug-19 23:30N 63°00' E 007°18'0 0.0
2017-Aug-19 23:00N 63°00' E 007°18'0 0.0
2017-Aug-19 22:30N 63°00' E 007°18'0 0.0
2017-Aug-19 22:00N 63°00' E 007°18'0 0.0
2017-Aug-19 21:30N 63°00' E 007°18'0 0.0
2017-Aug-19 21:00N 63°00' E 007°18'0 0.0
2017-Aug-19 20:30N 63°00' E 007°18'0 0.0
2017-Aug-19 20:00N 63°00' E 007°18'0 0.0
2017-Aug-19 19:30N 63°00' E 007°18'0 0.0
2017-Aug-19 19:00N 63°00' E 007°18'0 0.0
2017-Aug-19 18:30N 63°00' E 007°18'0 0.0
2017-Aug-19 18:00N 63°00' E 007°18'0 0.0
2017-Aug-19 17:30N 63°00' E 007°18'0 0.0
2017-Aug-19 17:00N 63°00' E 007°18'0 0.0
2017-Aug-19 16:30N 63°00' E 007°18'0 0.0
2017-Aug-19 16:00N 63°00' E 007°18'0 0.0
2017-Aug-19 15:30N 63°00' E 007°18'0 0.0
2017-Aug-19 15:00N 63°00' E 007°18'2 1.7
2017-Aug-19 14:00N 63°01' E 007°22'0 0.8
2017-Aug-19 13:30N 63°01' E 007°23'1 2.7
2017-Aug-19 13:01N 63°01' E 007°20'0 0.2
2017-Aug-19 12:31N 63°01' E 007°20'2 4.0
2017-Aug-19 12:00N 63°01' E 007°16'3 6.8
2017-Aug-19 11:30N 63°00' E 007°09'3 6.9
2017-Aug-19 11:00N 62°59' E 007°02'2 3.9
2017-Aug-19 10:30N 62°57' E 006°59'2 4.2
2017-Aug-19 10:00N 62°56' E 006°56'3 6.6
2017-Aug-19 09:30N 62°53' E 006°52'0 0.4
2017-Aug-19 09:00N 62°53' E 006°51'1 1.9
2017-Aug-19 08:30N 62°53' E 006°50'0 0.1
2017-Aug-19 08:00N 62°53' E 006°50'0 0.8
2017-Aug-19 07:30N 62°53' E 006°50'0 0.2
2017-Aug-19 07:00N 62°53' E 006°50'0 1.0
2017-Aug-19 06:30N 62°53' E 006°51'2 3.1
2017-Aug-19 06:00N 62°54' E 006°53'1 1.5
2017-Aug-19 05:29N 62°54' E 006°55'0 0.0
2017-Aug-19 05:00N 62°54' E 006°55'0 0.0
2017-Aug-19 04:30N 62°54' E 006°55'0 0.0
2017-Aug-19 04:00N 62°54' E 006°55'0 0.0
2017-Aug-19 03:30N 62°54' E 006°55'0 0.0
2017-Aug-19 03:00N 62°54' E 006°55'0 0.0
2017-Aug-19 02:29N 62°54' E 006°55'0 0.0
2017-Aug-19 02:00N 62°54' E 006°55'0 0.0
2017-Aug-19 01:30N 62°54' E 006°55'0 0.0
2017-Aug-19 01:00N 62°54' E 006°55'0 0.0
2017-Aug-19 00:30N 62°54' E 006°55'0 0.0
2017-Aug-19 00:00N 62°54' E 006°55'0 0.0
2017-Aug-18 23:30N 62°54' E 006°55'0 0.0
2017-Aug-18 23:00N 62°54' E 006°55'0 0.0
2017-Aug-18 22:30N 62°54' E 006°55'0 0.0
2017-Aug-18 21:59N 62°54' E 006°55'0 0.0
2017-Aug-18 21:29N 62°54' E 006°55'0 0.0
2017-Aug-18 21:00N 62°54' E 006°55'0 0.0
2017-Aug-18 20:30N 62°54' E 006°55'0 0.0
2017-Aug-18 20:00N 62°54' E 006°55'0 0.0
2017-Aug-18 19:30N 62°54' E 006°55'0 0.0
2017-Aug-18 19:00N 62°54' E 006°55'0 0.0
2017-Aug-18 18:29N 62°54' E 006°55'0 0.0
2017-Aug-18 18:00N 62°54' E 006°55'0 0.0
2017-Aug-18 17:30N 62°54' E 006°55'0 0.0
2017-Aug-18 16:59N 62°54' E 006°55'0 0.4
2017-Aug-18 16:30N 62°54' E 006°54'2 4.6
2017-Aug-18 16:00N 62°53' E 006°50'0 0.9
2017-Aug-18 15:30N 62°53' E 006°51'1 1.3
2017-Aug-18 15:00N 62°53' E 006°50'0 0.4
2017-Aug-18 14:30N 62°53' E 006°50'0 0.2
2017-Aug-18 13:31N 62°53' E 006°50'0 0.3
2017-Aug-18 13:01N 62°53' E 006°50'2 3.3
2017-Aug-18 12:30N 62°52' E 006°47'3 6.0
2017-Aug-18 12:00N 62°51' E 006°41'3 5.9
2017-Aug-18 11:30N 62°50' E 006°35'1 2.5
2017-Aug-18 10:59N 62°49' E 006°33'0 0.0
2017-Aug-18 10:30N 62°49' E 006°33'0 0.0
2017-Aug-18 10:00N 62°49' E 006°33'1 1.9
2017-Aug-18 09:31N 62°48' E 006°32'0 0.7
2017-Aug-18 09:00N 62°49' E 006°31'1 1.6
2017-Aug-18 08:30N 62°49' E 006°30'0 0.3
2017-Aug-18 08:00N 62°49' E 006°31'1 1.4
2017-Aug-18 07:30N 62°50' E 006°32'0 0.5
2017-Aug-18 07:00N 62°49' E 006°33'0 0.2
2017-Aug-18 06:30N 62°49' E 006°33'1 1.7
2017-Aug-18 06:00N 62°49' E 006°34'0 0.0
2017-Aug-18 05:30N 62°49' E 006°34'0 0.0
2017-Aug-18 04:59N 62°49' E 006°34'0 0.0
2017-Aug-18 04:30N 62°49' E 006°34'0 0.0
2017-Aug-18 04:00N 62°49' E 006°34'0 0.0
2017-Aug-18 03:30N 62°49' E 006°34'0 0.0
2017-Aug-18 03:00N 62°49' E 006°34'0 0.0
2017-Aug-18 02:30N 62°49' E 006°34'0 0.0
2017-Aug-18 02:00N 62°49' E 006°34'0 0.0
2017-Aug-18 01:30N 62°49' E 006°34'0 0.0
2017-Aug-18 01:00N 62°49' E 006°34'0 0.0
2017-Aug-18 00:30N 62°49' E 006°34'0 0.0
2017-Aug-18 00:00N 62°49' E 006°34'0 0.0
2017-Aug-17 23:30N 62°49' E 006°34'0 0.0
2017-Aug-17 22:59N 62°49' E 006°34'0 0.0
2017-Aug-17 22:30N 62°49' E 006°34'0 0.0
2017-Aug-17 22:00N 62°49' E 006°34'0 0.0
2017-Aug-17 21:30N 62°49' E 006°34'0 0.0
2017-Aug-17 21:00N 62°49' E 006°34'0 0.0
2017-Aug-17 20:30N 62°49' E 006°34'0 0.0
2017-Aug-17 20:00N 62°49' E 006°34'0 0.0
2017-Aug-17 19:30N 62°49' E 006°34'0 0.0
2017-Aug-17 18:41N 62°49' E 006°34'0 0.0
2017-Aug-17 18:30N 62°49' E 006°34'0 0.0
2017-Aug-17 18:00N 62°49' E 006°34'0 0.0
2017-Aug-17 17:30N 62°49' E 006°34'0 0.5
2017-Aug-17 17:00N 62°49' E 006°34'2 3.1
2017-Aug-17 16:30N 62°49' E 006°31'1 2.2
2017-Aug-17 16:00N 62°49' E 006°33'0 0.0
2017-Aug-17 15:30N 62°49' E 006°33'1 1.8
2017-Aug-17 15:00N 62°48' E 006°33'3 6.8
2017-Aug-17 14:30N 62°45' E 006°36'3 6.5
2017-Aug-17 14:00N 62°42' E 006°40'1 2.0
2017-Aug-17 13:30N 62°42' E 006°42'0 0.0
2017-Aug-17 13:00N 62°42' E 006°42'0 0.0
2017-Aug-17 12:30N 62°42' E 006°42'0 0.0
2017-Aug-17 12:00N 62°42' E 006°42'0 0.0
2017-Aug-17 11:30N 62°42' E 006°42'0 0.0
2017-Aug-17 11:00N 62°42' E 006°42'0 0.0
2017-Aug-17 10:30N 62°42' E 006°42'0 0.0
2017-Aug-17 10:00N 62°42' E 006°42'1 2.5
2017-Aug-17 09:30N 62°42' E 006°39'0 0.5
2017-Aug-17 09:00N 62°42' E 006°39'0 0.4
2017-Aug-17 08:30N 62°42' E 006°39'0 0.3
2017-Aug-17 08:00N 62°42' E 006°39'0 0.6
2017-Aug-17 07:30N 62°42' E 006°39'1 1.3
2017-Aug-17 07:00N 62°43' E 006°40'0 0.2
2017-Aug-17 06:30N 62°42' E 006°40'2 4.0
2017-Aug-17 06:00N 62°40' E 006°40'0 0.0
2017-Aug-17 05:30N 62°40' E 006°40'0 0.0
2017-Aug-17 05:00N 62°40' E 006°40'0 0.0
2017-Aug-17 04:30N 62°40' E 006°40'0 0.0
2017-Aug-17 04:00N 62°40' E 006°40'0 0.0
2017-Aug-17 03:30N 62°40' E 006°40'0 0.0
2017-Aug-17 03:00N 62°40' E 006°40'0 0.0
2017-Aug-17 02:30N 62°40' E 006°40'0 0.0
2017-Aug-17 02:00N 62°40' E 006°40'0 0.0
2017-Aug-17 01:30N 62°40' E 006°40'0 0.0
2017-Aug-17 01:00N 62°40' E 006°40'0 0.0
2017-Aug-17 00:29N 62°40' E 006°40'0 0.0
2017-Aug-17 00:00N 62°40' E 006°40'0 0.0
2017-Aug-16 23:30N 62°40' E 006°40'0 0.0
2017-Aug-16 23:00N 62°40' E 006°40'0 0.0
2017-Aug-16 22:30N 62°40' E 006°40'0 0.0
2017-Aug-16 21:59N 62°40' E 006°40'0 0.0
2017-Aug-16 21:30N 62°40' E 006°40'0 0.0
2017-Aug-16 21:00N 62°40' E 006°40'0 0.0
2017-Aug-16 20:30N 62°40' E 006°40'0 0.0
2017-Aug-16 20:00N 62°40' E 006°40'0 0.0
2017-Aug-16 19:30N 62°40' E 006°40'0 0.0
2017-Aug-16 19:00N 62°40' E 006°40'0 0.0
2017-Aug-16 18:30N 62°40' E 006°40'0 0.0
2017-Aug-16 18:00N 62°40' E 006°40'0 0.0
2017-Aug-16 17:30N 62°40' E 006°40'0 0.0
2017-Aug-16 17:00N 62°40' E 006°40'0 0.0
2017-Aug-16 16:30N 62°40' E 006°40'0 0.0
2017-Aug-16 16:00N 62°40' E 006°40'2 3.2
2017-Aug-16 15:29N 62°42' E 006°40'1 1.3
2017-Aug-16 15:00N 62°42' E 006°39'0 0.3
2017-Aug-16 14:30N 62°42' E 006°38'1 2.2
2017-Aug-16 14:00N 62°42' E 006°40'0 0.7
2017-Aug-16 13:30N 62°43' E 006°40'2 4.0
2017-Aug-16 13:00N 62°42' E 006°36'4 7.4
2017-Aug-16 12:30N 62°40' E 006°29'4 7.3
2017-Aug-16 12:00N 62°38' E 006°22'3 6.8
2017-Aug-16 11:30N 62°40' E 006°16'1 2.2
2017-Aug-16 11:00N 62°41' E 006°14'0 0.0
2017-Aug-16 10:30N 62°41' E 006°14'0 0.0
2017-Aug-16 10:00N 62°41' E 006°14'0 0.0
2017-Aug-16 09:30N 62°41' E 006°14'0 0.0
2017-Aug-16 09:00N 62°41' E 006°14'0 0.0
2017-Aug-16 08:30N 62°41' E 006°14'0 0.0
2017-Aug-16 08:00N 62°41' E 006°14'0 0.5
2017-Aug-16 07:30N 62°41' E 006°14'1 1.0
2017-Aug-16 07:00N 62°40' E 006°14'1 1.2
2017-Aug-16 06:30N 62°41' E 006°15'0 0.5
2017-Aug-16 06:00N 62°41' E 006°14'0 0.0
2017-Aug-16 05:30N 62°41' E 006°14'0 0.0
2017-Aug-16 05:00N 62°41' E 006°14'0 0.0
2017-Aug-16 04:30N 62°41' E 006°14'0 0.0
2017-Aug-16 04:00N 62°41' E 006°14'0 0.0
2017-Aug-16 03:30N 62°41' E 006°14'0 0.0
2017-Aug-16 03:00N 62°41' E 006°14'0 0.0
2017-Aug-16 02:30N 62°41' E 006°14'0 0.0
2017-Aug-16 02:00N 62°41' E 006°14'0 0.0
2017-Aug-16 01:30N 62°41' E 006°14'0 0.0
2017-Aug-16 01:00N 62°41' E 006°14'0 0.0
2017-Aug-16 00:30N 62°41' E 006°14'0 0.0
2017-Aug-16 00:00N 62°41' E 006°14'0 0.0
2017-Aug-15 23:29N 62°41' E 006°14'0 0.0
2017-Aug-15 23:00N 62°41' E 006°14'0 0.0
2017-Aug-15 22:30N 62°41' E 006°14'0 0.0
2017-Aug-15 22:00N 62°41' E 006°14'0 0.0
2017-Aug-15 21:30N 62°41' E 006°14'0 0.0
2017-Aug-15 21:00N 62°41' E 006°14'0 0.0
2017-Aug-15 20:30N 62°41' E 006°14'0 0.0
2017-Aug-15 20:00N 62°41' E 006°14'0 0.0
2017-Aug-15 19:30N 62°41' E 006°14'0 0.0
2017-Aug-15 19:00N 62°41' E 006°14'0 0.0
2017-Aug-15 18:30N 62°41' E 006°14'0 0.0
2017-Aug-15 18:00N 62°41' E 006°14'0 0.0
2017-Aug-15 17:30N 62°41' E 006°14'0 0.0
2017-Aug-15 17:00N 62°41' E 006°14'0 0.0
2017-Aug-15 16:30N 62°41' E 006°14'1 1.3
2017-Aug-15 16:00N 62°40' E 006°14'1 1.2
2017-Aug-15 15:30N 62°41' E 006°14'0 0.0
2017-Aug-15 15:00N 62°41' E 006°14'0 0.0
2017-Aug-15 14:30N 62°41' E 006°14'0 0.0
2017-Aug-15 14:00N 62°41' E 006°14'0 0.0
2017-Aug-15 13:30N 62°41' E 006°14'0 0.0
2017-Aug-15 12:59N 62°41' E 006°14'2 3.6
2017-Aug-15 12:30N 62°39' E 006°16'3 5.4
2017-Aug-15 12:00N 62°37' E 006°17'3 6.0
2017-Aug-15 11:29N 62°34' E 006°13'3 5.9
2017-Aug-15 10:59N 62°32' E 006°09'1 1.2
2017-Aug-15 10:30N 62°32' E 006°07'0 0.0
2017-Aug-15 10:00N 62°32' E 006°07'0 0.0
2017-Aug-15 09:30N 62°32' E 006°07'2 4.5
2017-Aug-15 09:00N 62°30' E 006°08'2 4.8
2017-Aug-15 08:29N 62°31' E 006°04'1 1.7
2017-Aug-15 08:00N 62°32' E 006°03'0 0.2
2017-Aug-15 07:30N 62°32' E 006°03'0 0.2
2017-Aug-15 07:00N 62°32' E 006°03'1 1.9
2017-Aug-15 06:29N 62°32' E 006°05'0 0.7
2017-Aug-15 06:00N 62°32' E 006°05'0 0.9
2017-Aug-15 05:30N 62°33' E 006°04'0 0.0
2017-Aug-15 05:00N 62°33' E 006°04'0 0.0
2017-Aug-15 04:30N 62°33' E 006°04'0 0.0
2017-Aug-15 04:00N 62°33' E 006°04'0 0.0
2017-Aug-15 03:30N 62°33' E 006°04'0 0.0
2017-Aug-15 03:00N 62°33' E 006°04'0 0.0
2017-Aug-15 02:30N 62°33' E 006°04'0 0.0
2017-Aug-15 02:00N 62°33' E 006°04'0 0.0
2017-Aug-15 01:30N 62°33' E 006°04'0 0.0
2017-Aug-15 01:00N 62°33' E 006°04'0 0.0
2017-Aug-15 00:30N 62°33' E 006°04'0 0.0
2017-Aug-15 00:00N 62°33' E 006°04'0 0.0
2017-Aug-14 23:30N 62°33' E 006°04'0 0.0
2017-Aug-14 23:00N 62°33' E 006°04'0 0.0
2017-Aug-14 22:30N 62°33' E 006°04'0 0.0
2017-Aug-14 22:00N 62°33' E 006°04'0 0.0
2017-Aug-14 21:30N 62°33' E 006°04'0 0.0
2017-Aug-14 21:00N 62°33' E 006°04'0 0.0
2017-Aug-14 20:30N 62°33' E 006°04'0 0.0
2017-Aug-14 19:59N 62°33' E 006°04'0 0.0
2017-Aug-14 19:30N 62°33' E 006°04'0 0.0
2017-Aug-14 19:00N 62°33' E 006°04'0 0.0
2017-Aug-14 18:29N 62°33' E 006°04'0 0.0
2017-Aug-14 18:00N 62°33' E 006°04'1 1.3
2017-Aug-14 17:30N 62°32' E 006°04'1 1.9
2017-Aug-14 16:59N 62°32' E 006°06'1 1.3
2017-Aug-14 16:30N 62°33' E 006°06'2 4.9
2017-Aug-14 16:00N 62°30' E 006°05'2 4.0
2017-Aug-14 15:29N 62°31' E 006°09'5 2.0
2017-Aug-14 13:06N 62°36' E 006°07'0 4.2
2017-Aug-14 13:00N 62°36' E 006°08'3 6.4
2017-Aug-14 12:30N 62°33' E 006°09'3 6.7
2017-Aug-14 12:00N 62°29' E 006°10'3 6.6
2017-Aug-14 11:30N 62°29' E 006°17'1 1.2
2017-Aug-14 11:00N 62°29' E 006°18'0 0.0
2017-Aug-14 10:30N 62°29' E 006°18'0 0.0
2017-Aug-14 10:00N 62°29' E 006°18'0 0.0
2017-Aug-14 09:30N 62°29' E 006°18'0 0.0
2017-Aug-14 09:00N 62°29' E 006°18'1 2.4
2017-Aug-14 08:30N 62°29' E 006°16'1 2.7
2017-Aug-14 08:00N 62°30' E 006°13'0 0.2
2017-Aug-14 07:30N 62°30' E 006°13'1 2.0
2017-Aug-14 07:00N 62°29' E 006°15'2 3.2
2017-Aug-14 06:30N 62°29' E 006°19'2 3.0
2017-Aug-14 06:00N 62°28' E 006°22'0 0.0
2017-Aug-14 05:30N 62°28' E 006°22'0 0.0
2017-Aug-14 05:00N 62°28' E 006°22'0 0.0
2017-Aug-14 04:29N 62°28' E 006°22'0 0.0
2017-Aug-14 04:00N 62°28' E 006°22'0 0.0
2017-Aug-14 03:30N 62°28' E 006°22'0 0.0
2017-Aug-14 02:59N 62°28' E 006°22'0 0.0
2017-Aug-14 02:30N 62°28' E 006°22'0 0.0
2017-Aug-14 01:59N 62°28' E 006°22'0 0.0
2017-Aug-14 01:29N 62°28' E 006°22'0 0.0
2017-Aug-14 01:00N 62°28' E 006°22'0 0.0
2017-Aug-14 00:30N 62°28' E 006°22'0 0.0
2017-Aug-13 23:59N 62°28' E 006°22'0 0.0
2017-Aug-13 23:30N 62°28' E 006°22'0 0.0
2017-Aug-13 23:00N 62°28' E 006°22'0 0.0
2017-Aug-13 22:30N 62°28' E 006°22'0 0.0
2017-Aug-13 22:00N 62°28' E 006°22'0 0.0
2017-Aug-13 21:30N 62°28' E 006°22'0 0.0
2017-Aug-13 21:00N 62°28' E 006°22'0 0.0
2017-Aug-13 20:30N 62°28' E 006°22'0 0.0
2017-Aug-13 20:00N 62°28' E 006°22'0 0.0
2017-Aug-13 19:30N 62°28' E 006°22'0 0.0
2017-Aug-13 19:00N 62°28' E 006°22'0 0.0
2017-Aug-13 18:30N 62°28' E 006°22'0 0.0
2017-Aug-13 18:00N 62°28' E 006°22'0 0.0
2017-Aug-13 17:30N 62°28' E 006°22'2 3.7
2017-Aug-13 17:01N 62°29' E 006°18'2 3.1
2017-Aug-13 16:30N 62°29' E 006°15'3 5.8
2017-Aug-13 16:00N 62°29' E 006°21'0 0.8
2017-Aug-13 15:30N 62°28' E 006°22'1 2.2
2017-Aug-13 15:00N 62°29' E 006°19'2 4.0
2017-Aug-13 14:30N 62°29' E 006°15'1 2.0
2017-Aug-13 14:00N 62°30' E 006°13'0 0.1
2017-Aug-13 13:30N 62°30' E 006°13'0 0.2
2017-Aug-13 13:00N 62°30' E 006°13'0 0.2
2017-Aug-13 12:30N 62°30' E 006°13'0 0.2
2017-Aug-13 12:00N 62°30' E 006°13'2 5.0
2017-Aug-13 11:30N 62°29' E 006°09'1 1.8
2017-Aug-13 11:00N 62°28' E 006°07'1 1.0
2017-Aug-13 10:29N 62°28' E 006°08'2 3.9
2017-Aug-13 10:00N 62°28' E 006°12'3 6.3
2017-Aug-13 09:30N 62°27' E 006°19'1 2.1
2017-Aug-13 08:59N 62°26' E 006°20'0 0.0
2017-Aug-13 08:30N 62°26' E 006°20'0 0.1
2017-Aug-13 08:00N 62°26' E 006°20'2 3.4
2017-Aug-13 07:30N 62°27' E 006°17'3 6.1
2017-Aug-13 07:00N 62°28' E 006°10'1 2.7
2017-Aug-13 06:30N 62°28' E 006°08'1 1.9
2017-Aug-13 06:00N 62°28' E 006°09'0 0.0
2017-Aug-13 05:30N 62°28' E 006°09'0 0.0
2017-Aug-13 05:00N 62°28' E 006°09'0 0.0
2017-Aug-13 04:30N 62°28' E 006°09'0 0.0
2017-Aug-13 04:00N 62°28' E 006°09'0 0.0
2017-Aug-13 03:30N 62°28' E 006°09'0 0.0
2017-Aug-13 03:00N 62°28' E 006°09'0 0.0
2017-Aug-13 02:30N 62°28' E 006°09'0 0.0
2017-Aug-13 02:00N 62°28' E 006°09'0 0.0
2017-Aug-13 01:30N 62°28' E 006°09'0 0.0
2017-Aug-13 01:00N 62°28' E 006°09'0 0.0
2017-Aug-13 00:30N 62°28' E 006°09'0 0.0
2017-Aug-13 00:00N 62°28' E 006°09'0 0.0
2017-Aug-12 23:30N 62°28' E 006°09'0 0.0
2017-Aug-12 23:00N 62°28' E 006°09'0 0.0
2017-Aug-12 22:29N 62°28' E 006°09'0 0.0
2017-Aug-12 22:00N 62°28' E 006°09'0 0.0
2017-Aug-12 21:29N 62°28' E 006°09'0 0.0
2017-Aug-12 21:00N 62°28' E 006°09'0 0.0
2017-Aug-12 20:30N 62°28' E 006°09'0 0.0
2017-Aug-12 20:00N 62°28' E 006°09'0 0.0
2017-Aug-12 19:29N 62°28' E 006°09'0 0.0
2017-Aug-12 19:00N 62°28' E 006°09'0 0.0
2017-Aug-12 18:30N 62°28' E 006°09'0 0.0
2017-Aug-12 18:00N 62°28' E 006°09'0 0.0
2017-Aug-12 17:30N 62°28' E 006°09'0 0.0
2017-Aug-12 17:00N 62°28' E 006°09'0 0.0
2017-Aug-12 16:30N 62°28' E 006°09'1 1.4
2017-Aug-12 16:00N 62°28' E 006°08'2 3.7
2017-Aug-12 15:30N 62°28' E 006°12'3 6.8
2017-Aug-12 15:00N 62°27' E 006°19'1 1.3
2017-Aug-12 14:30N 62°26' E 006°20'0 0.1
2017-Aug-12 14:00N 62°26' E 006°20'2 4.9
2017-Aug-12 13:30N 62°27' E 006°15'3 6.5
2017-Aug-12 13:00N 62°27' E 006°08'3 6.4
2017-Aug-12 12:30N 62°26' E 006°02'3 6.4
2017-Aug-12 12:00N 62°26' E 005°55'3 5.8
2017-Aug-12 11:30N 62°24' E 005°50'3 6.3
2017-Aug-12 11:00N 62°21' E 005°48'3 6.2
2017-Aug-12 10:30N 62°18' E 005°45'0 0.7
2017-Aug-12 10:00N 62°18' E 005°46'0 0.0
2017-Aug-12 09:30N 62°18' E 005°46'0 0.0
2017-Aug-12 09:00N 62°18' E 005°46'0 0.0
2017-Aug-12 08:30N 62°18' E 005°46'0 0.0
2017-Aug-12 08:00N 62°18' E 005°46'0 0.0
2017-Aug-12 07:30N 62°18' E 005°46'0 0.1
2017-Aug-12 07:00N 62°18' E 005°46'1 1.8
2017-Aug-12 06:30N 62°18' E 005°45'0 0.3
2017-Aug-12 06:00N 62°17' E 005°44'0 0.0
2017-Aug-12 05:30N 62°17' E 005°44'0 0.0
2017-Aug-12 05:00N 62°17' E 005°44'0 0.0
2017-Aug-12 04:30N 62°17' E 005°44'0 0.0
2017-Aug-12 04:00N 62°17' E 005°44'0 0.0
2017-Aug-12 03:30N 62°17' E 005°44'0 0.0
2017-Aug-12 03:00N 62°17' E 005°44'0 0.0
2017-Aug-12 02:30N 62°17' E 005°44'0 0.0
2017-Aug-12 02:00N 62°17' E 005°44'0 0.0
2017-Aug-12 01:30N 62°17' E 005°44'0 0.0
2017-Aug-12 01:00N 62°17' E 005°44'0 0.0
2017-Aug-12 00:30N 62°17' E 005°44'0 0.0
2017-Aug-11 23:59N 62°17' E 005°44'0 0.0
2017-Aug-11 23:30N 62°17' E 005°44'0 0.0
2017-Aug-11 23:00N 62°17' E 005°44'0 0.0
2017-Aug-11 22:30N 62°17' E 005°44'0 0.0
2017-Aug-11 22:00N 62°17' E 005°44'0 0.0
2017-Aug-11 21:30N 62°17' E 005°44'0 0.0
2017-Aug-11 21:00N 62°17' E 005°44'0 0.0
2017-Aug-11 20:30N 62°17' E 005°44'0 0.0
2017-Aug-11 20:00N 62°17' E 005°44'0 0.0
2017-Aug-11 19:29N 62°17' E 005°44'0 0.0
2017-Aug-11 19:00N 62°17' E 005°44'0 0.0
2017-Aug-11 18:30N 62°17' E 005°44'0 0.0
2017-Aug-11 18:00N 62°17' E 005°44'0 0.6
2017-Aug-11 17:30N 62°18' E 005°45'1 1.8
2017-Aug-11 17:00N 62°18' E 005°46'1 1.0
2017-Aug-11 16:30N 62°18' E 005°46'1 1.0
2017-Aug-11 16:00N 62°18' E 005°45'0 0.2
2017-Aug-11 15:30N 62°18' E 005°45'3 5.7
2017-Aug-11 15:00N 62°20' E 005°45'3 3.1
2017-Aug-11 14:00N 62°21' E 005°38'0 0.0
2017-Aug-11 13:30N 62°21' E 005°38'0 0.0
2017-Aug-11 13:00N 62°21' E 005°38'0 0.0
2017-Aug-11 12:30N 62°21' E 005°38'0 0.0
2017-Aug-11 12:00N 62°21' E 005°38'0 0.0
2017-Aug-11 11:30N 62°21' E 005°38'0 0.0
2017-Aug-11 10:59N 62°21' E 005°38'0 0.0
2017-Aug-11 10:30N 62°21' E 005°38'0 0.0
2017-Aug-11 10:00N 62°21' E 005°38'0 0.0
2017-Aug-11 09:30N 62°21' E 005°38'0 0.0
2017-Aug-11 09:00N 62°21' E 005°38'0 0.0
2017-Aug-11 08:30N 62°21' E 005°38'0 0.0
2017-Aug-11 08:00N 62°21' E 005°38'0 0.0
2017-Aug-11 07:30N 62°21' E 005°38'0 0.0
2017-Aug-11 07:00N 62°21' E 005°38'0 0.0
2017-Aug-11 06:30N 62°21' E 005°38'0 0.0
2017-Aug-11 06:00N 62°21' E 005°38'0 0.0
2017-Aug-11 05:30N 62°21' E 005°38'0 0.0
2017-Aug-11 05:00N 62°21' E 005°38'0 0.0
2017-Aug-11 04:30N 62°21' E 005°38'0 0.0
2017-Aug-11 04:00N 62°21' E 005°38'0 0.0
2017-Aug-11 03:30N 62°21' E 005°38'0 0.0
2017-Aug-11 03:00N 62°21' E 005°38'0 0.0
2017-Aug-11 02:30N 62°21' E 005°38'0 0.0
2017-Aug-11 02:00N 62°21' E 005°38'0 0.0
2017-Aug-11 01:30N 62°21' E 005°38'0 0.0
2017-Aug-11 01:00N 62°21' E 005°38'0 0.0
2017-Aug-11 00:30N 62°21' E 005°38'0 0.0
2017-Aug-11 00:00N 62°21' E 005°38'0 0.0
2017-Aug-10 23:30N 62°21' E 005°38'0 0.0
2017-Aug-10 23:00N 62°21' E 005°38'0 0.0
2017-Aug-10 22:29N 62°21' E 005°38'0 0.0
2017-Aug-10 22:00N 62°21' E 005°38'0 0.0
2017-Aug-10 21:30N 62°21' E 005°38'0 0.0
2017-Aug-10 21:00N 62°21' E 005°38'0 0.0
2017-Aug-10 20:30N 62°21' E 005°38'0 0.0
2017-Aug-10 20:00N 62°21' E 005°38'0 0.0
2017-Aug-10 19:30N 62°21' E 005°38'0 0.0
2017-Aug-10 19:00N 62°21' E 005°38'0 0.0
2017-Aug-10 18:29N 62°21' E 005°38'0 0.0
2017-Aug-10 18:00N 62°21' E 005°38'0 0.0
2017-Aug-10 17:30N 62°21' E 005°38'0 0.0
2017-Aug-10 17:00N 62°21' E 005°38'0 0.0
2017-Aug-10 16:29N 62°21' E 005°38'0 0.0
2017-Aug-10 16:00N 62°21' E 005°38'0 0.0
2017-Aug-10 15:30N 62°21' E 005°38'0 0.0
2017-Aug-10 15:00N 62°21' E 005°38'2 4.3
2017-Aug-10 14:30N 62°22' E 005°41'3 6.1
2017-Aug-10 13:58N 62°21' E 005°48'1 3.1
2017-Aug-10 13:30N 62°21' E 005°51'0 0.0
2017-Aug-10 13:00N 62°21' E 005°51'0 0.0
2017-Aug-10 12:30N 62°21' E 005°51'0 0.0
2017-Aug-10 12:00N 62°21' E 005°51'0 0.0
2017-Aug-10 11:30N 62°21' E 005°51'2 4.0
2017-Aug-10 10:59N 62°20' E 005°47'2 3.7
2017-Aug-10 10:29N 62°18' E 005°45'1 1.6
2017-Aug-10 10:00N 62°19' E 005°46'  

Dump ship's entire track history